Time;durP1;ratioP1;P1;durP2;ratioP2;P2;SDS_P1;SDS_P2;PMS_P1;PMS_P2;Temp;Humidity;BMP_temperature;BMP_pressure;BME280_temperature;BME280_humidity;BME280_pressure;Samples;Min_cycle;Max_cycle;Signal;HPM_P1;HPM_P2
2022/05/24 15:59:33;;;;;;;9.10;4.22;;;;;;;19.23;58.81;98380.98;1800369;78;22877;-39
2022/05/24 16:01:59;;;;;;;10.18;4.70;;;;;;;19.21;58.82;98381.64;1776269;80;21070;-44
2022/05/24 16:10:03;;;;;;;18.70;9.00;;;;;;;19.26;58.81;98376.16;1770993;80;21170;-37
2022/05/24 16:12:35;;;;;;;19.55;11.10;;;;;;;19.28;59.04;98380.00;1782493;80;21440;-37
2022/05/24 16:15:04;;;;;;;16.87;10.88;;;;;;;19.29;59.18;98377.69;1791991;80;21023;-36
2022/05/24 16:17:33;;;;;;;15.25;8.10;;;;;;;19.33;59.18;98377.69;1773986;80;21579;-38
2022/05/24 16:20:06;;;;;;;13.50;5.50;;;;;;;19.31;59.28;98379.69;1787728;80;21030;-37
2022/05/24 16:22:34;;;;;;;9.68;4.87;;;;;;;19.31;59.44;98381.02;1797108;80;21486;-35
2022/05/24 16:25:00;;;;;;;11.03;4.90;;;;;;;19.29;59.79;98380.34;1794088;80;21014;-46
2022/05/24 16:27:27;;;;;;;8.68;4.67;;;;;;;19.34;59.63;98382.03;1785465;80;21002;-43
2022/05/24 16:29:55;;;;;;;5.92;3.90;;;;;;;19.35;59.66;98381.02;1791329;80;21037;-45
2022/05/24 16:32:22;;;;;;;5.92;3.70;;;;;;;19.36;59.55;98377.37;1769202;80;21248;-42
2022/05/24 16:34:49;;;;;;;6.58;4.15;;;;;;;19.36;59.74;98381.37;1764282;80;21012;-42
2022/05/24 16:37:16;;;;;;;5.25;3.87;;;;;;;19.33;59.98;98383.84;1766342;80;21078;-42
2022/05/24 16:39:43;;;;;;;10.00;3.90;;;;;;;19.35;59.78;98387.69;1767155;80;21542;-44
2022/05/24 16:42:10;;;;;;;5.42;3.62;;;;;;;19.31;59.95;98388.51;1765237;80;21536;-42
2022/05/24 16:44:37;;;;;;;7.08;3.90;;;;;;;19.28;59.79;98392.85;1765010;80;21081;-47
2022/05/24 16:47:04;;;;;;;5.90;3.98;;;;;;;19.24;59.95;98395.99;1765691;80;21357;-43
2022/05/24 16:49:30;;;;;;;5.87;3.58;;;;;;;19.18;60.26;98394.30;1766083;80;21508;-45
2022/05/24 16:52:03;;;;;;;6.30;4.42;;;;;;;19.14;59.99;98398.30;1763499;80;21010;-43
2022/05/24 16:59:53;;;;;;;16.50;4.10;;;;;;;19.04;60.51;98410.91;1763002;80;21314;-40
2022/05/24 17:02:19;;;;;;;9.60;4.20;;;;;;;19.00;60.58;98404.23;1766006;80;21045;-40
2022/05/24 17:04:45;;;;;;;8.15;3.77;;;;;;;19.02;60.31;98402.23;1766801;80;21011;-40
2022/05/24 17:07:11;;;;;;;6.12;3.40;;;;;;;19.01;60.63;98397.92;1767084;80;21097;-41
2022/05/24 17:09:37;;;;;;;7.85;4.25;;;;;;;18.99;60.56;98396.75;1764138;80;20980;-41
2022/05/24 17:12:04;;;;;;;8.08;4.33;;;;;;;18.99;60.63;98399.41;1747700;81;21083;-41
2022/05/24 17:14:29;;;;;;;10.13;3.67;;;;;;;18.95;60.95;98405.20;1755707;81;21102;-41
2022/05/24 17:16:55;;;;;;;6.12;3.70;;;;;;;18.89;60.96;98409.85;1756505;81;21075;-42
2022/05/24 17:19:21;;;;;;;5.05;3.27;;;;;;;18.88;60.79;98411.69;1746594;81;21115;-41
2022/05/24 17:21:47;;;;;;;6.95;4.83;;;;;;;18.88;60.86;98407.70;1748820;81;21055;-41
2022/05/24 17:24:12;;;;;;;7.33;3.83;;;;;;;18.89;60.92;98411.19;1754562;81;21103;-41
2022/05/24 17:26:38;;;;;;;9.00;3.92;;;;;;;18.81;61.31;98410.66;1738588;81;21008;-41
2022/05/24 17:29:04;;;;;;;5.03;4.08;;;;;;;18.80;61.03;98414.27;1763423;81;21160;-40
2022/05/24 17:31:30;;;;;;;7.58;3.90;;;;;;;18.78;60.96;98414.92;1755258;81;21001;-41
2022/05/24 17:34:02;;;;;;;9.45;3.58;;;;;;;18.72;61.15;98412.41;1747746;81;21083;-40
2022/05/24 17:36:25;;;;;;;5.20;4.00;;;;;;;18.69;61.03;98425.20;1763465;81;21064;-41
2022/05/24 17:38:50;;;;;;;12.60;4.10;;;;;;;18.64;61.40;98417.67;1748617;81;21012;-41
2022/05/24 17:41:20;;;;;;;13.58;4.08;;;;;;;18.60;61.49;98413.66;1747128;81;21020;-41
2022/05/24 17:43:48;;;;;;;8.63;3.90;;;;;;;18.57;61.55;98416.16;1743556;81;21085;-41
2022/05/24 17:46:15;;;;;;;7.10;3.70;;;;;;;18.54;61.67;98419.62;1736330;81;21044;-42
2022/05/24 17:48:46;;;;;;;11.05;4.22;;;;;;;18.50;61.77;98420.44;1754901;81;21103;-41
2022/05/24 17:51:13;;;;;;;5.28;3.55;;;;;;;18.48;62.00;98424.22;1764605;81;21529;-40
2022/05/24 17:53:41;;;;;;;14.30;4.67;;;;;;;18.47;61.75;98430.05;1748996;81;21091;-41
2022/05/24 17:56:07;;;;;;;11.55;4.50;;;;;;;18.45;62.56;98431.22;1763132;81;21393;-41
2022/05/24 17:58:32;;;;;;;6.78;4.05;;;;;;;18.36;63.72;98435.13;1754803;81;21212;-40
2022/05/24 18:00:59;;;;;;;14.55;4.00;;;;;;;18.32;64.56;98441.77;1748497;81;21035;-40
2022/05/24 18:03:25;;;;;;;8.23;4.00;;;;;;;18.23;64.58;98440.03;1738999;81;21055;-41
2022/05/24 18:05:51;;;;;;;4.07;3.73;;;;;;;18.18;65.29;98440.48;1730543;81;21059;-41
2022/05/24 18:08:17;;;;;;;6.53;4.60;;;;;;;18.10;67.09;98441.77;1765306;81;21035;-41
2022/05/24 18:10:43;;;;;;;10.45;4.97;;;;;;;18.07;66.34;98445.23;1755444;81;21048;-42
2022/05/24 18:13:11;;;;;;;9.50;4.58;;;;;;;18.04;66.65;98445.02;1744095;81;21044;-41
2022/05/24 18:15:36;;;;;;;;;;;;;;;18.01;67.03;98448.83;1742513;81;21075;-42
2022/05/24 18:18:04;;;;;;;11.28;4.62;;;;;;;17.97;68.47;98443.48;1753536;81;20517;-41
2022/05/24 18:20:35;;;;;;;7.00;4.65;;;;;;;17.96;67.78;98445.79;1756385;81;21028;-42
2022/05/24 18:23:15;;;;;;;15.40;5.00;;;;;;;17.90;68.42;98446.41;1763359;81;21031;-41
2022/05/24 18:34:08;;;;;;;7.78;5.25;;;;;;;17.68;72.06;98464.92;1758163;81;21059;-46
2022/05/24 18:36:38;;;;;;;22.95;5.65;;;;;;;17.65;71.20;98470.05;1750117;81;21517;-41
2022/05/24 18:39:05;;;;;;;16.73;8.83;;;;;;;17.59;73.13;98478.64;1766613;81;21140;-40
2022/05/24 18:41:34;;;;;;;18.62;8.75;;;;;;;17.57;74.04;98484.61;1754186;81;21053;-40
2022/05/24 18:43:59;;;;;;;16.10;6.92;;;;;;;17.53;75.22;98478.39;1748716;81;21042;-41
2022/05/24 18:46:25;;;;;;;14.78;6.53;;;;;;;17.50;75.91;98495.49;1753969;81;21175;-38
2022/05/24 18:48:51;;;;;;;23.42;10.20;;;;;;;17.53;75.97;98499.66;1755946;81;21047;-44
2022/05/24 18:51:16;;;;;;;15.00;7.58;;;;;;;17.50;76.27;98507.45;1745751;81;21069;-39
2022/05/24 18:53:42;;;;;;;13.00;7.08;;;;;;;17.47;77.03;98507.73;1746518;81;21013;-41
2022/05/24 18:56:08;;;;;;;20.85;6.95;;;;;;;17.44;78.00;98508.02;1745920;81;21042;-39
2022/05/24 18:58:35;;;;;;;15.08;6.17;;;;;;;17.46;76.75;98511.37;1752154;81;21078;-41
2022/05/24 19:01:10;;;;;;;12.33;6.45;;;;;;;17.48;78.02;98515.21;1753588;81;21060;-45
2022/05/24 19:03:37;;;;;;;14.83;6.17;;;;;;;17.43;77.13;98515.67;1746074;81;21559;-47
2022/05/24 19:06:04;;;;;;;9.83;5.78;;;;;;;17.35;79.55;98524.35;1757842;81;21007;-45
2022/05/24 19:08:30;;;;;;;16.82;6.03;;;;;;;17.33;77.46;98524.17;1755376;81;21094;-45
2022/05/24 19:10:59;;;;;;;10.90;6.12;;;;;;;17.25;80.26;98529.72;1760750;81;21066;-47
2022/05/24 19:13:25;;;;;;;9.93;6.28;;;;;;;17.16;81.26;98521.30;1753251;81;21066;-46
2022/05/24 19:15:51;;;;;;;10.70;6.50;;;;;;;17.10;81.95;98525.88;1754535;81;21093;-45
2022/05/24 19:18:17;;;;;;;14.38;6.60;;;;;;;17.04;82.37;98521.95;1747519;81;21102;-46
2022/05/24 19:20:43;;;;;;;14.78;7.08;;;;;;;17.00;82.73;98517.09;1755318;81;21078;-45
2022/05/24 19:23:09;;;;;;;15.65;7.10;;;;;;;16.90;84.59;98517.13;1755197;81;21126;-46
2022/05/24 19:25:37;;;;;;;13.88;7.30;;;;;;;16.87;85.44;98511.59;1746330;81;21601;-45
2022/05/24 19:28:04;;;;;;;16.25;8.05;;;;;;;16.85;86.75;98510.91;1754734;81;21080;-49
2022/05/24 19:30:31;;;;;;;15.10;8.00;;;;;;;16.81;86.15;98512.16;1746154;81;21041;-46
2022/05/24 19:32:57;;;;;;;11.65;7.90;;;;;;;16.82;84.58;98509.83;1746204;81;21053;-45
2022/05/24 19:35:22;;;;;;;11.30;8.03;;;;;;;16.84;84.60;98511.88;1746049;81;21080;-47
2022/05/24 19:37:49;;;;;;;14.87;8.15;;;;;;;16.85;86.77;98516.22;1746106;81;21009;-46
2022/05/24 19:43:00;;;;;;;12.30;8.28;;;;;;;16.86;86.68;98513.92;1747188;81;21500;-49
2022/05/24 19:45:26;;;;;;;18.30;8.58;;;;;;;16.83;87.25;98516.86;1752934;81;21065;-46
2022/05/24 19:47:52;;;;;;;12.28;7.92;;;;;;;16.83;87.96;98524.83;1756625;81;21152;-46
2022/05/24 19:50:19;;;;;;;11.55;8.03;;;;;;;16.84;87.00;98529.14;1761194;81;21065;-47
2022/05/24 19:52:47;;;;;;;19.12;8.15;;;;;;;16.85;86.27;98533.48;1761372;81;21089;-46
2022/05/24 19:55:14;;;;;;;18.85;8.50;;;;;;;16.86;86.56;98540.48;1750986;80;21112;-47
2022/05/24 19:57:41;;;;;;;17.12;9.20;;;;;;;16.84;87.95;98545.06;1751682;80;21556;-45
2022/05/24 20:00:11;;;;;;;15.27;9.80;;;;;;;16.81;88.69;98548.00;1759946;81;21042;-46
2022/05/24 20:02:38;;;;;;;14.65;9.18;;;;;;;16.78;89.50;98552.26;1754043;80;21610;-46
2022/05/24 20:05:05;;;;;;;12.25;8.58;;;;;;;16.75;89.88;98556.52;1750866;81;21047;-45
2022/05/24 20:07:31;;;;;;;21.93;9.33;;;;;;;16.75;89.94;98559.17;1750309;81;21567;-47
2022/05/24 20:09:57;;;;;;;18.98;8.80;;;;;;;16.75;90.58;98557.84;1746883;81;21080;-45
2022/05/24 20:12:23;;;;;;;11.93;8.03;;;;;;;16.73;90.45;98558.48;1748678;81;21079;-47
2022/05/24 20:14:51;;;;;;;26.57;9.18;;;;;;;16.72;90.77;98559.48;1750978;81;21108;-45
2022/05/24 20:17:20;;;;;;;13.20;8.48;;;;;;;16.71;91.18;98557.79;1760213;81;21066;-47
2022/05/24 20:19:47;;;;;;;12.82;8.80;;;;;;;16.72;90.40;98559.48;1762786;81;21030;-45
2022/05/24 20:22:13;;;;;;;16.75;8.90;;;;;;;16.72;89.61;98562.13;1757131;81;21476;-45
2022/05/24 20:24:43;;;;;;;15.60;9.83;;;;;;;16.72;89.84;98562.13;1761899;81;21101;-45
2022/05/24 20:27:18;;;;;;;13.15;9.45;;;;;;;16.70;89.95;98552.15;1751288;80;21069;-46
2022/05/24 20:29:45;;;;;;;12.93;9.20;;;;;;;16.68;89.95;98556.27;1746742;81;21038;-46
2022/05/24 20:32:11;;;;;;;16.02;9.60;;;;;;;16.73;88.95;98562.46;1753709;81;21034;-47
2022/05/24 20:34:40;;;;;;;15.48;9.80;;;;;;;16.72;90.41;98559.95;1755056;80;21032;-46
2022/05/24 20:37:14;;;;;;;13.15;8.58;;;;;;;16.73;90.42;98562.46;1748020;81;20992;-45
2022/05/24 20:39:40;;;;;;;15.15;8.55;;;;;;;16.71;91.77;98555.13;1755919;81;21051;-45
2022/05/24 20:42:09;;;;;;;15.05;9.68;;;;;;;16.69;90.58;98554.44;1751320;81;21488;-46
2022/05/24 20:44:36;;;;;;;17.80;9.05;;;;;;;16.67;92.09;98552.42;1766191;81;21090;-46
2022/05/24 20:47:04;;;;;;;15.40;9.58;;;;;;;16.68;91.20;98560.72;1747686;81;21065;-46
2022/05/24 20:49:31;;;;;;;14.55;9.18;;;;;;;16.70;91.15;98569.41;1763241;81;21710;-46
2022/05/24 20:51:57;;;;;;;19.12;9.93;;;;;;;16.70;91.52;98575.55;1752057;81;21356;-46
2022/05/24 20:54:23;;;;;;;14.75;9.50;;;;;;;16.71;91.41;98572.39;1764155;81;21117;-46
2022/05/24 20:56:48;;;;;;;16.20;10.18;;;;;;;16.72;90.80;98581.19;1759893;81;21007;-46
2022/05/24 20:59:21;;;;;;;16.25;10.10;;;;;;;16.74;90.58;98580.08;1746966;81;21033;-49
2022/05/24 21:01:42;;;;;;;17.00;10.00;;;;;;;16.74;90.71;98581.41;1744632;81;21534;-46
2022/05/24 21:04:08;;;;;;;15.43;9.78;;;;;;;16.71;91.82;98580.35;1750378;80;21014;-46
2022/05/24 21:06:33;;;;;;;11.70;8.98;;;;;;;16.66;92.55;98582.13;1751573;81;21091;-46
2022/05/24 21:08:59;;;;;;;14.38;9.38;;;;;;;16.66;92.60;98583.92;1751016;81;21552;-45
2022/05/24 21:11:25;;;;;;;18.05;11.33;;;;;;;16.69;91.29;98591.61;1751962;81;21039;-48
2022/05/24 21:13:50;;;;;;;15.15;10.98;;;;;;;16.69;91.80;98587.62;1747757;81;21017;-49
2022/05/24 21:16:17;;;;;;;15.55;11.18;;;;;;;16.68;91.71;98590.78;1746876;81;21022;-46
2022/05/24 21:18:42;;;;;;;25.27;11.75;;;;;;;16.68;92.28;98584.61;1749013;81;21101;-45
2022/05/24 21:21:12;;;;;;;18.02;11.68;;;;;;;16.68;92.10;98585.47;1764852;81;21093;-45
2022/05/24 21:23:37;;;;;;;19.27;13.20;;;;;;;16.68;91.87;98584.61;1757051;81;21047;-46
2022/05/24 21:28:50;;;;;;;16.12;12.15;;;;;;;16.65;92.88;98588.89;1748597;81;21117;-48
2022/05/24 21:31:16;;;;;;;19.32;12.60;;;;;;;16.62;93.76;98583.86;1748223;81;21015;-47
2022/05/24 21:33:42;;;;;;;16.97;12.45;;;;;;;16.60;93.11;98594.61;1755277;81;21105;-45
2022/05/24 21:36:08;;;;;;;19.62;12.93;;;;;;;16.59;93.52;98595.61;1750401;81;21002;-45
2022/05/24 21:38:38;;;;;;;17.75;12.07;;;;;;;16.59;93.51;98589.44;1747484;81;21030;-47
2022/05/24 21:41:05;;;;;;;22.93;12.85;;;;;;;16.60;91.90;98587.14;1747397;81;21520;-46
2022/05/24 21:43:31;;;;;;;20.90;13.08;;;;;;;16.60;91.98;98593.78;1746349;81;21049;-46
2022/05/24 21:45:57;;;;;;;19.27;12.15;;;;;;;16.59;93.29;98596.07;1745997;81;21061;-46
2022/05/24 21:48:27;;;;;;;17.00;12.30;;;;;;;16.58;92.79;98600.55;1751001;81;21042;-48
2022/05/24 21:51:03;;;;;;;20.95;12.10;;;;;;;16.60;92.69;98597.77;1746455;81;21032;-46
2022/05/24 21:53:30;;;;;;;15.45;11.63;;;;;;;16.59;92.31;98601.38;1746507;81;21002;-47
2022/05/24 21:56:12;;;;;;;20.82;13.38;;;;;;;16.59;92.15;98604.03;1753850;81;21053;-47
2022/05/24 21:58:40;;;;;;;21.30;13.48;;;;;;;16.58;92.25;98612.99;1757709;80;21050;-46
2022/05/24 22:01:07;;;;;;;19.98;13.00;;;;;;;16.51;92.87;98613.53;1760499;81;21139;-46
2022/05/24 22:03:37;;;;;;;18.75;12.53;;;;;;;16.46;92.77;98613.14;1761408;81;21082;-48
2022/05/24 22:06:08;;;;;;;16.27;12.58;;;;;;;16.42;92.57;98618.34;1757216;81;21678;-46
2022/05/24 22:08:34;;;;;;;16.02;12.10;;;;;;;16.40;91.87;98614.17;1751460;81;21559;-46
2022/05/24 22:11:11;;;;;;;19.85;12.23;;;;;;;16.28;94.94;98610.33;1746117;81;21021;-49
2022/05/24 22:13:38;;;;;;;17.82;12.10;;;;;;;16.23;95.35;98607.23;1750427;80;21043;-45
2022/05/24 22:16:05;;;;;;;23.12;12.78;;;;;;;16.23;94.85;98611.22;1750329;81;21093;-45
2022/05/24 22:18:32;;;;;;;17.87;12.68;;;;;;;16.23;93.86;98610.39;1747453;81;21543;-45
2022/05/24 22:20:58;;;;;;;19.23;13.40;;;;;;;16.24;93.69;98621.33;1750967;81;21085;-45
2022/05/24 22:23:27;;;;;;;19.48;14.15;;;;;;;16.24;93.54;98633.27;1751531;81;21551;-46
2022/05/24 22:25:54;;;;;;;20.45;14.20;;;;;;;16.21;93.50;98634.86;1749214;81;21378;-46
2022/05/24 22:28:20;;;;;;;21.12;14.45;;;;;;;16.19;93.97;98632.84;1765204;81;21030;-48
2022/05/24 22:30:47;;;;;;;20.15;14.25;;;;;;;16.14;95.39;98631.11;1761080;81;21015;-48
2022/05/24 22:33:14;;;;;;;22.13;15.75;;;;;;;16.14;94.47;98635.91;1753856;81;21085;-48
2022/05/24 22:35:41;;;;;;;24.77;15.18;;;;;;;16.13;96.22;98644.83;1752952;81;21230;-49
2022/05/24 22:38:08;;;;;;;23.42;15.23;;;;;;;16.15;94.88;98647.36;1751193;81;21043;-49
2022/05/24 22:40:38;;;;;;;21.42;15.40;;;;;;;16.17;94.19;98652.03;1746734;81;21065;-46
2022/05/24 22:43:07;;;;;;;25.35;15.32;;;;;;;16.14;95.35;98645.20;1752313;81;21039;-45
2022/05/24 22:45:34;;;;;;;18.25;13.75;;;;;;;16.14;95.90;98641.72;1755580;81;21021;-47
2022/05/24 22:47:59;;;;;;;17.07;13.80;;;;;;;16.14;95.90;98641.22;1757425;81;21570;-46
2022/05/24 22:50:26;;;;;;;23.42;14.87;;;;;;;16.15;95.12;98644.70;1753504;81;21206;-51
2022/05/24 22:52:54;;;;;;;19.15;14.05;;;;;;;16.18;94.01;98640.46;1761650;81;21002;-49
2022/05/24 22:55:22;;;;;;;21.02;13.88;;;;;;;16.16;94.86;98643.74;1756764;81;21062;-47
2022/05/24 22:57:47;;;;;;;;;;;;;;;16.18;95.40;98644.44;1760449;81;21110;-49
2022/05/24 23:00:19;;;;;;;20.32;13.70;;;;;;;16.15;96.35;98640.73;1747502;81;20542;-48
2022/05/24 23:02:46;;;;;;;18.23;13.30;;;;;;;16.14;96.22;98640.39;1752293;81;21058;-45
2022/05/24 23:05:15;;;;;;;19.07;12.47;;;;;;;16.14;95.67;98638.57;1749165;81;21035;-45
2022/05/24 23:07:41;;;;;;;18.67;12.50;;;;;;;16.08;97.83;98628.48;1749027;81;21055;-46
2022/05/24 23:10:11;;;;;;;15.80;12.95;;;;;;;16.11;95.65;98626.40;1746299;81;21081;-43
2022/05/24 23:12:38;;;;;;;16.60;12.15;;;;;;;16.11;96.16;98625.56;1753113;81;21554;-47
2022/05/24 23:15:06;;;;;;;15.55;12.47;;;;;;;16.10;96.47;98620.77;1752639;81;21049;-46
2022/05/24 23:17:33;;;;;;;13.88;11.45;;;;;;;16.14;96.28;98633.76;1746145;81;21669;-44
2022/05/24 23:20:00;;;;;;;16.27;11.40;;;;;;;16.14;96.56;98636.41;1753511;80;21058;-47
2022/05/24 23:22:26;;;;;;;16.80;12.15;;;;;;;16.14;96.56;98639.06;1755269;81;21050;-45
2022/05/24 23:24:52;;;;;;;16.45;11.53;;;;;;;16.18;95.91;98635.16;1757670;81;21542;-48
2022/05/24 23:27:17;;;;;;;14.20;10.35;;;;;;;16.20;95.84;98632.70;1751220;81;21023;-47
2022/05/24 23:29:43;;;;;;;14.75;11.05;;;;;;;16.21;96.07;98634.39;1764084;81;21046;-48
2022/05/24 23:32:10;;;;;;;15.58;10.80;;;;;;;16.22;94.53;98632.58;1755780;81;21559;-48
2022/05/24 23:34:41;;;;;;;13.87;9.80;;;;;;;16.23;94.77;98636.42;1763709;81;21060;-47
2022/05/24 23:37:08;;;;;;;11.93;8.75;;;;;;;16.22;95.56;98633.41;1750665;81;21385;-46
2022/05/24 23:39:34;;;;;;;10.88;8.73;;;;;;;16.22;94.67;98625.94;1746671;81;21101;-46
2022/05/24 23:42:05;;;;;;;12.75;7.42;;;;;;;16.21;94.56;98627.77;1746381;81;21093;-46
2022/05/24 23:44:29;;;;;;;8.68;7.03;;;;;;;16.23;93.77;98632.44;1745615;81;21314;-45
2022/05/24 23:46:55;;;;;;;9.45;7.05;;;;;;;16.23;93.51;98636.91;1745968;81;21029;-47
2022/05/24 23:49:23;;;;;;;8.45;6.03;;;;;;;16.24;93.34;98638.58;1748170;81;21592;-47
2022/05/24 23:51:49;;;;;;;7.03;4.92;;;;;;;16.22;93.16;98637.88;1748937;81;21113;-45
2022/05/24 23:54:16;;;;;;;6.42;4.95;;;;;;;16.20;93.04;98636.69;1753175;81;21015;-45
2022/05/24 23:56:43;;;;;;;6.03;5.00;;;;;;;16.19;93.11;98638.14;1748291;81;21031;-45
2022/05/24 23:59:09;;;;;;;5.20;4.45;;;;;;;16.15;93.31;98632.27;1764092;81;21075;-45
